sensor_id;sensor_type;location;lat;lon;timestamp;temperature;humidity
16871;DHT22;8552;48.120;-1.456;2023-05-10T00:01:23;10.90;99.90
16871;DHT22;8552;48.120;-1.456;2023-05-10T00:03:49;10.80;99.90
16871;DHT22;8552;48.120;-1.456;2023-05-10T00:06:14;10.90;99.90
16871;DHT22;8552;48.120;-1.456;2023-05-10T00:08:40;10.80;99.90
16871;DHT22;8552;48.120;-1.456;2023-05-10T00:11:06;10.80;99.90
16871;DHT22;8552;48.120;-1.456;2023-05-10T00:13:31;10.80;99.90
16871;DHT22;8552;48.120;-1.456;2023-05-10T00:15:57;10.70;99.90
16871;DHT22;8552;48.120;-1.456;2023-05-10T00:18:23;10.70;99.90
16871;DHT22;8552;48.120;-1.456;2023-05-10T00:20:49;10.70;99.90
16871;DHT22;8552;48.120;-1.456;2023-05-10T00:23:15;10.60;99.90
16871;DHT22;8552;48.120;-1.456;2023-05-10T00:25:40;10.60;99.90
16871;DHT22;8552;48.120;-1.456;2023-05-10T00:28:06;10.60;99.90
16871;DHT22;8552;48.120;-1.456;2023-05-10T00:30:31;10.50;99.90
16871;DHT22;8552;48.120;-1.456;2023-05-10T00:32:57;10.50;99.90
16871;DHT22;8552;48.120;-1.456;2023-05-10T00:35:23;10.40;99.90
16871;DHT22;8552;48.120;-1.456;2023-05-10T00:37:49;10.40;99.90
16871;DHT22;8552;48.120;-1.456;2023-05-10T00:40:15;10.40;99.90
16871;DHT22;8552;48.120;-1.456;2023-05-10T00:42:40;10.30;99.90
16871;DHT22;8552;48.120;-1.456;2023-05-10T00:45:06;10.30;99.90
16871;DHT22;8552;48.120;-1.456;2023-05-10T00:47:32;10.30;99.90
16871;DHT22;8552;48.120;-1.456;2023-05-10T00:49:59;10.20;99.90
16871;DHT22;8552;48.120;-1.456;2023-05-10T00:52:28;10.20;99.90
16871;DHT22;8552;48.120;-1.456;2023-05-10T00:54:54;10.10;99.90
16871;DHT22;8552;48.120;-1.456;2023-05-10T00:57:21;10.10;99.90
16871;DHT22;8552;48.120;-1.456;2023-05-10T00:59:48;10.10;99.90
16871;DHT22;8552;48.120;-1.456;2023-05-10T01:02:13;10.10;99.90
16871;DHT22;8552;48.120;-1.456;2023-05-10T01:04:39;10.10;99.90
16871;DHT22;8552;48.120;-1.456;2023-05-10T01:07:06;10.00;99.90
16871;DHT22;8552;48.120;-1.456;2023-05-10T01:09:32;10.00;99.90
16871;DHT22;8552;48.120;-1.456;2023-05-10T01:11:58;10.00;99.90
16871;DHT22;8552;48.120;-1.456;2023-05-10T01:14:25;10.00;99.90
16871;DHT22;8552;48.120;-1.456;2023-05-10T01:16:52;10.00;99.90
16871;DHT22;8552;48.120;-1.456;2023-05-10T01:19:29;10.00;99.90
16871;DHT22;8552;48.120;-1.456;2023-05-10T01:33:18;9.90;99.90
16871;DHT22;8552;48.120;-1.456;2023-05-10T01:35:55;9.90;99.90
16871;DHT22;8552;48.120;-1.456;2023-05-10T01:44:18;9.80;99.90
16871;DHT22;8552;48.120;-1.456;2023-05-10T01:46:53;9.80;99.90
16871;DHT22;8552;48.120;-1.456;2023-05-10T01:49:30;9.80;99.90
16871;DHT22;8552;48.120;-1.456;2023-05-10T01:52:04;9.80;99.90
16871;DHT22;8552;48.120;-1.456;2023-05-10T01:54:33;9.80;99.90
16871;DHT22;8552;48.120;-1.456;2023-05-10T01:57:03;9.80;99.90
16871;DHT22;8552;48.120;-1.456;2023-05-10T01:59:34;9.80;99.90
16871;DHT22;8552;48.120;-1.456;2023-05-10T02:02:06;9.80;99.90
16871;DHT22;8552;48.120;-1.456;2023-05-10T02:04:35;9.90;99.90
16871;DHT22;8552;48.120;-1.456;2023-05-10T02:07:03;9.90;99.90
16871;DHT22;8552;48.120;-1.456;2023-05-10T02:09:30;9.90;99.90
16871;DHT22;8552;48.120;-1.456;2023-05-10T02:11:58;9.90;99.90
16871;DHT22;8552;48.120;-1.456;2023-05-10T02:14:26;9.90;99.90
16871;DHT22;8552;48.120;-1.456;2023-05-10T02:16:53;9.90;99.90
16871;DHT22;8552;48.120;-1.456;2023-05-10T02:19:20;9.90;99.90
16871;DHT22;8552;48.120;-1.456;2023-05-10T02:21:47;9.90;99.90
16871;DHT22;8552;48.120;-1.456;2023-05-10T02:24:15;9.90;99.90
16871;DHT22;8552;48.120;-1.456;2023-05-10T02:26:42;9.90;99.90
16871;DHT22;8552;48.120;-1.456;2023-05-10T02:29:09;9.80;99.90
16871;DHT22;8552;48.120;-1.456;2023-05-10T02:31:38;9.80;99.90
16871;DHT22;8552;48.120;-1.456;2023-05-10T02:34:05;9.90;99.90
16871;DHT22;8552;48.120;-1.456;2023-05-10T02:36:31;9.90;99.90
16871;DHT22;8552;48.120;-1.456;2023-05-10T02:38:58;9.90;99.90
16871;DHT22;8552;48.120;-1.456;2023-05-10T02:41:27;9.90;99.90
16871;DHT22;8552;48.120;-1.456;2023-05-10T02:43:57;10.00;99.90
16871;DHT22;8552;48.120;-1.456;2023-05-10T02:46:24;9.90;99.90
16871;DHT22;8552;48.120;-1.456;2023-05-10T02:48:50;10.00;99.90
16871;DHT22;8552;48.120;-1.456;2023-05-10T02:51:16;10.00;99.90
16871;DHT22;8552;48.120;-1.456;2023-05-10T02:53:45;10.00;99.90
16871;DHT22;8552;48.120;-1.456;2023-05-10T02:56:19;10.00;99.90
16871;DHT22;8552;48.120;-1.456;2023-05-10T02:58:45;10.00;99.90
16871;DHT22;8552;48.120;-1.456;2023-05-10T03:01:11;9.90;99.90
16871;DHT22;8552;48.120;-1.456;2023-05-10T03:03:37;10.00;99.90
16871;DHT22;8552;48.120;-1.456;2023-05-10T03:06:03;9.90;99.90
16871;DHT22;8552;48.120;-1.456;2023-05-10T03:08:29;10.00;99.90
16871;DHT22;8552;48.120;-1.456;2023-05-10T03:13:32;10.00;99.90
16871;DHT22;8552;48.120;-1.456;2023-05-10T03:16:15;10.00;99.90
16871;DHT22;8552;48.120;-1.456;2023-05-10T03:19:02;10.00;99.90
16871;DHT22;8552;48.120;-1.456;2023-05-10T03:21:29;10.00;99.90
16871;DHT22;8552;48.120;-1.456;2023-05-10T03:23:59;10.00;99.90
16871;DHT22;8552;48.120;-1.456;2023-05-10T03:26:28;10.00;99.90
16871;DHT22;8552;48.120;-1.456;2023-05-10T03:28:55;10.00;99.90
16871;DHT22;8552;48.120;-1.456;2023-05-10T03:31:24;9.90;99.90
16871;DHT22;8552;48.120;-1.456;2023-05-10T03:33:50;9.90;99.90
16871;DHT22;8552;48.120;-1.456;2023-05-10T03:36:17;9.90;99.90
16871;DHT22;8552;48.120;-1.456;2023-05-10T03:38:42;9.90;99.90
16871;DHT22;8552;48.120;-1.456;2023-05-10T03:41:08;9.90;99.90
16871;DHT22;8552;48.120;-1.456;2023-05-10T03:43:34;9.80;99.90
16871;DHT22;8552;48.120;-1.456;2023-05-10T03:46:02;9.80;99.90
16871;DHT22;8552;48.120;-1.456;2023-05-10T03:48:28;9.80;99.90
16871;DHT22;8552;48.120;-1.456;2023-05-10T03:50:53;9.70;99.90
16871;DHT22;8552;48.120;-1.456;2023-05-10T03:53:19;9.70;99.90
16871;DHT22;8552;48.120;-1.456;2023-05-10T03:55:45;9.70;99.90
16871;DHT22;8552;48.120;-1.456;2023-05-10T03:58:11;9.70;99.90
16871;DHT22;8552;48.120;-1.456;2023-05-10T04:00:37;9.70;99.90
16871;DHT22;8552;48.120;-1.456;2023-05-10T04:03:11;9.70;99.90
16871;DHT22;8552;48.120;-1.456;2023-05-10T04:05:37;9.70;99.90
16871;DHT22;8552;48.120;-1.456;2023-05-10T04:08:03;9.70;99.90
16871;DHT22;8552;48.120;-1.456;2023-05-10T04:10:30;9.70;99.90
16871;DHT22;8552;48.120;-1.456;2023-05-10T04:12:55;9.70;99.90
16871;DHT22;8552;48.120;-1.456;2023-05-10T04:15:21;9.80;99.90
16871;DHT22;8552;48.120;-1.456;2023-05-10T04:17:47;9.70;99.90
16871;DHT22;8552;48.120;-1.456;2023-05-10T04:20:13;9.70;99.90
16871;DHT22;8552;48.120;-1.456;2023-05-10T04:22:39;9.70;99.90
16871;DHT22;8552;48.120;-1.456;2023-05-10T04:25:05;9.70;99.90
16871;DHT22;8552;48.120;-1.456;2023-05-10T04:27:31;9.70;99.90
16871;DHT22;8552;48.120;-1.456;2023-05-10T04:29:57;9.70;99.90
16871;DHT22;8552;48.120;-1.456;2023-05-10T04:32:23;9.60;99.90
16871;DHT22;8552;48.120;-1.456;2023-05-10T04:34:49;9.50;99.90
16871;DHT22;8552;48.120;-1.456;2023-05-10T04:37:16;9.50;99.90
16871;DHT22;8552;48.120;-1.456;2023-05-10T04:39:41;9.40;99.90
16871;DHT22;8552;48.120;-1.456;2023-05-10T04:42:07;9.40;99.90
16871;DHT22;8552;48.120;-1.456;2023-05-10T04:44:33;9.30;99.90
16871;DHT22;8552;48.120;-1.456;2023-05-10T04:46:59;9.30;99.90
16871;DHT22;8552;48.120;-1.456;2023-05-10T04:49:25;9.30;99.90
16871;DHT22;8552;48.120;-1.456;2023-05-10T04:51:51;9.30;99.90
16871;DHT22;8552;48.120;-1.456;2023-05-10T04:54:16;9.30;99.90
16871;DHT22;8552;48.120;-1.456;2023-05-10T04:56:42;9.40;99.90
16871;DHT22;8552;48.120;-1.456;2023-05-10T04:59:07;9.30;99.90
16871;DHT22;8552;48.120;-1.456;2023-05-10T05:01:33;9.30;99.90
16871;DHT22;8552;48.120;-1.456;2023-05-10T05:03:59;9.30;99.90
16871;DHT22;8552;48.120;-1.456;2023-05-10T05:06:25;9.30;99.90
16871;DHT22;8552;48.120;-1.456;2023-05-10T05:08:52;9.30;99.90
16871;DHT22;8552;48.120;-1.456;2023-05-10T05:11:18;9.30;99.90
16871;DHT22;8552;48.120;-1.456;2023-05-10T05:13:43;9.30;99.90
16871;DHT22;8552;48.120;-1.456;2023-05-10T05:16:09;9.20;99.90
16871;DHT22;8552;48.120;-1.456;2023-05-10T05:18:36;9.20;99.90
16871;DHT22;8552;48.120;-1.456;2023-05-10T05:21:02;9.20;99.90
16871;DHT22;8552;48.120;-1.456;2023-05-10T05:23:28;9.20;99.90
16871;DHT22;8552;48.120;-1.456;2023-05-10T05:25:53;9.20;99.90
16871;DHT22;8552;48.120;-1.456;2023-05-10T05:28:20;9.20;99.90
16871;DHT22;8552;48.120;-1.456;2023-05-10T05:30:46;9.20;99.90
16871;DHT22;8552;48.120;-1.456;2023-05-10T05:33:13;9.20;99.90
16871;DHT22;8552;48.120;-1.456;2023-05-10T05:35:40;9.30;99.90
16871;DHT22;8552;48.120;-1.456;2023-05-10T05:38:06;9.40;99.90
16871;DHT22;8552;48.120;-1.456;2023-05-10T05:40:32;9.40;99.90
16871;DHT22;8552;48.120;-1.456;2023-05-10T05:42:57;9.50;99.90
16871;DHT22;8552;48.120;-1.456;2023-05-10T05:45:23;9.50;99.90
16871;DHT22;8552;48.120;-1.456;2023-05-10T05:47:49;9.60;99.90
16871;DHT22;8552;48.120;-1.456;2023-05-10T05:50:14;9.70;99.90
16871;DHT22;8552;48.120;-1.456;2023-05-10T05:52:40;9.70;99.90
16871;DHT22;8552;48.120;-1.456;2023-05-10T05:55:06;9.80;99.90
16871;DHT22;8552;48.120;-1.456;2023-05-10T05:57:32;9.90;99.90
16871;DHT22;8552;48.120;-1.456;2023-05-10T05:59:58;10.00;99.90
16871;DHT22;8552;48.120;-1.456;2023-05-10T06:02:24;10.00;99.90
16871;DHT22;8552;48.120;-1.456;2023-05-10T06:04:50;10.10;99.90
16871;DHT22;8552;48.120;-1.456;2023-05-10T06:07:16;10.20;99.90
16871;DHT22;8552;48.120;-1.456;2023-05-10T06:09:41;10.30;99.90
16871;DHT22;8552;48.120;-1.456;2023-05-10T06:12:07;10.40;99.90
16871;DHT22;8552;48.120;-1.456;2023-05-10T06:14:33;10.50;99.90
16871;DHT22;8552;48.120;-1.456;2023-05-10T06:16:58;10.60;99.90
16871;DHT22;8552;48.120;-1.456;2023-05-10T06:19:25;10.70;99.90
16871;DHT22;8552;48.120;-1.456;2023-05-10T06:21:51;10.80;99.90
16871;DHT22;8552;48.120;-1.456;2023-05-10T06:24:17;10.80;99.90
16871;DHT22;8552;48.120;-1.456;2023-05-10T06:26:43;10.90;99.90
16871;DHT22;8552;48.120;-1.456;2023-05-10T06:29:08;10.90;99.90
16871;DHT22;8552;48.120;-1.456;2023-05-10T06:31:34;11.00;99.90
16871;DHT22;8552;48.120;-1.456;2023-05-10T06:34:00;11.10;99.90
16871;DHT22;8552;48.120;-1.456;2023-05-10T06:36:25;11.20;99.90
16871;DHT22;8552;48.120;-1.456;2023-05-10T06:38:52;11.30;99.90
16871;DHT22;8552;48.120;-1.456;2023-05-10T06:41:18;11.40;99.90
16871;DHT22;8552;48.120;-1.456;2023-05-10T06:43:44;11.60;99.90
16871;DHT22;8552;48.120;-1.456;2023-05-10T06:46:10;11.90;99.90
16871;DHT22;8552;48.120;-1.456;2023-05-10T06:48:35;12.10;99.90
16871;DHT22;8552;48.120;-1.456;2023-05-10T06:51:01;12.20;99.90
16871;DHT22;8552;48.120;-1.456;2023-05-10T06:53:27;12.30;99.90
16871;DHT22;8552;48.120;-1.456;2023-05-10T06:55:52;12.40;99.90
16871;DHT22;8552;48.120;-1.456;2023-05-10T06:58:21;12.60;99.90
16871;DHT22;8552;48.120;-1.456;2023-05-10T07:00:51;12.80;99.90
16871;DHT22;8552;48.120;-1.456;2023-05-10T07:03:19;12.80;99.90
16871;DHT22;8552;48.120;-1.456;2023-05-10T07:05:44;12.80;99.90
16871;DHT22;8552;48.120;-1.456;2023-05-10T07:08:10;12.80;99.90
16871;DHT22;8552;48.120;-1.456;2023-05-10T07:10:36;12.80;99.90
16871;DHT22;8552;48.120;-1.456;2023-05-10T07:13:01;12.90;99.90
16871;DHT22;8552;48.120;-1.456;2023-05-10T07:15:27;13.00;99.90
16871;DHT22;8552;48.120;-1.456;2023-05-10T07:17:53;13.10;99.90
16871;DHT22;8552;48.120;-1.456;2023-05-10T07:20:19;13.10;99.90
16871;DHT22;8552;48.120;-1.456;2023-05-10T07:22:45;13.20;99.90
16871;DHT22;8552;48.120;-1.456;2023-05-10T07:25:13;13.40;99.90
16871;DHT22;8552;48.120;-1.456;2023-05-10T07:27:41;13.40;99.90
16871;DHT22;8552;48.120;-1.456;2023-05-10T07:30:07;13.50;99.90
16871;DHT22;8552;48.120;-1.456;2023-05-10T07:32:35;13.40;99.90
16871;DHT22;8552;48.120;-1.456;2023-05-10T07:35:09;13.40;99.90
16871;DHT22;8552;48.120;-1.456;2023-05-10T07:37:38;13.60;99.90
16871;DHT22;8552;48.120;-1.456;2023-05-10T07:40:08;13.60;99.90
16871;DHT22;8552;48.120;-1.456;2023-05-10T07:42:37;13.60;99.90
16871;DHT22;8552;48.120;-1.456;2023-05-10T07:45:06;13.70;99.90
16871;DHT22;8552;48.120;-1.456;2023-05-10T07:47:34;13.70;99.90
16871;DHT22;8552;48.120;-1.456;2023-05-10T07:50:07;13.70;99.90
16871;DHT22;8552;48.120;-1.456;2023-05-10T07:52:36;13.70;99.90
16871;DHT22;8552;48.120;-1.456;2023-05-10T07:55:07;13.80;99.90
16871;DHT22;8552;48.120;-1.456;2023-05-10T07:57:37;13.80;99.90
16871;DHT22;8552;48.120;-1.456;2023-05-10T08:00:08;13.90;99.90
16871;DHT22;8552;48.120;-1.456;2023-05-10T08:02:43;13.90;99.90
16871;DHT22;8552;48.120;-1.456;2023-05-10T08:05:12;13.90;99.90
16871;DHT22;8552;48.120;-1.456;2023-05-10T08:07:39;13.90;99.90
16871;DHT22;8552;48.120;-1.456;2023-05-10T08:10:06;14.00;99.90
16871;DHT22;8552;48.120;-1.456;2023-05-10T08:12:31;14.10;99.90
16871;DHT22;8552;48.120;-1.456;2023-05-10T08:14:57;14.00;99.90
16871;DHT22;8552;48.120;-1.456;2023-05-10T08:17:23;14.10;99.90
16871;DHT22;8552;48.120;-1.456;2023-05-10T08:19:48;14.10;99.90
16871;DHT22;8552;48.120;-1.456;2023-05-10T08:22:14;14.10;99.90
16871;DHT22;8552;48.120;-1.456;2023-05-10T08:24:40;14.10;99.90
16871;DHT22;8552;48.120;-1.456;2023-05-10T08:27:08;14.00;99.90
16871;DHT22;8552;48.120;-1.456;2023-05-10T08:29:34;14.00;99.90
16871;DHT22;8552;48.120;-1.456;2023-05-10T08:31:59;13.80;99.90
16871;DHT22;8552;48.120;-1.456;2023-05-10T08:34:26;13.70;99.90
16871;DHT22;8552;48.120;-1.456;2023-05-10T08:36:52;13.70;99.90
16871;DHT22;8552;48.120;-1.456;2023-05-10T08:39:18;13.70;99.90
16871;DHT22;8552;48.120;-1.456;2023-05-10T08:41:44;13.70;99.90
16871;DHT22;8552;48.120;-1.456;2023-05-10T08:44:12;13.70;99.90
16871;DHT22;8552;48.120;-1.456;2023-05-10T08:46:41;13.90;99.90
16871;DHT22;8552;48.120;-1.456;2023-05-10T08:49:13;13.90;99.90
16871;DHT22;8552;48.120;-1.456;2023-05-10T08:51:45;14.00;99.90
16871;DHT22;8552;48.120;-1.456;2023-05-10T08:54:12;14.10;99.90
16871;DHT22;8552;48.120;-1.456;2023-05-10T08:56:39;14.30;99.90
16871;DHT22;8552;48.120;-1.456;2023-05-10T08:59:04;14.20;99.90
16871;DHT22;8552;48.120;-1.456;2023-05-10T09:01:31;14.20;99.90
16871;DHT22;8552;48.120;-1.456;2023-05-10T09:03:58;14.20;99.90
16871;DHT22;8552;48.120;-1.456;2023-05-10T09:06:24;14.20;99.90
16871;DHT22;8552;48.120;-1.456;2023-05-10T09:08:50;14.20;99.90
16871;DHT22;8552;48.120;-1.456;2023-05-10T09:11:17;14.30;99.90
16871;DHT22;8552;48.120;-1.456;2023-05-10T09:13:43;14.70;99.90
16871;DHT22;8552;48.120;-1.456;2023-05-10T09:16:10;15.00;99.90
16871;DHT22;8552;48.120;-1.456;2023-05-10T09:18:36;15.20;99.90
16871;DHT22;8552;48.120;-1.456;2023-05-10T09:21:02;15.30;99.90
16871;DHT22;8552;48.120;-1.456;2023-05-10T09:23:27;15.30;99.90
16871;DHT22;8552;48.120;-1.456;2023-05-10T09:26:07;15.30;99.90
16871;DHT22;8552;48.120;-1.456;2023-05-10T09:28:34;15.30;99.90
16871;DHT22;8552;48.120;-1.456;2023-05-10T09:30:59;15.20;99.90
16871;DHT22;8552;48.120;-1.456;2023-05-10T09:33:25;15.20;99.90
16871;DHT22;8552;48.120;-1.456;2023-05-10T09:35:52;15.30;99.90
16871;DHT22;8552;48.120;-1.456;2023-05-10T09:38:17;15.10;99.90
16871;DHT22;8552;48.120;-1.456;2023-05-10T09:40:53;14.90;99.90
16871;DHT22;8552;48.120;-1.456;2023-05-10T09:43:20;14.80;99.90
16871;DHT22;8552;48.120;-1.456;2023-05-10T09:45:48;14.80;99.90
16871;DHT22;8552;48.120;-1.456;2023-05-10T09:48:15;14.90;99.90
16871;DHT22;8552;48.120;-1.456;2023-05-10T09:50:43;14.90;99.90
16871;DHT22;8552;48.120;-1.456;2023-05-10T09:53:16;15.00;99.90
16871;DHT22;8552;48.120;-1.456;2023-05-10T09:55:45;15.20;99.90
16871;DHT22;8552;48.120;-1.456;2023-05-10T09:58:12;15.40;99.90
16871;DHT22;8552;48.120;-1.456;2023-05-10T10:00:40;15.50;99.90
16871;DHT22;8552;48.120;-1.456;2023-05-10T10:03:06;15.90;99.90
16871;DHT22;8552;48.120;-1.456;2023-05-10T10:05:33;16.20;99.90
16871;DHT22;8552;48.120;-1.456;2023-05-10T10:08:00;16.20;99.90
16871;DHT22;8552;48.120;-1.456;2023-05-10T10:10:27;16.30;99.90
16871;DHT22;8552;48.120;-1.456;2023-05-10T10:12:54;16.40;99.90
16871;DHT22;8552;48.120;-1.456;2023-05-10T10:15:22;16.50;99.90
16871;DHT22;8552;48.120;-1.456;2023-05-10T10:17:49;16.30;99.90
16871;DHT22;8552;48.120;-1.456;2023-05-10T10:20:15;16.30;99.90
16871;DHT22;8552;48.120;-1.456;2023-05-10T10:22:41;16.20;99.90
16871;DHT22;8552;48.120;-1.456;2023-05-10T10:25:10;16.20;99.90
16871;DHT22;8552;48.120;-1.456;2023-05-10T10:30:48;16.50;99.90
16871;DHT22;8552;48.120;-1.456;2023-05-10T10:34:00;16.80;99.90
16871;DHT22;8552;48.120;-1.456;2023-05-10T10:36:27;16.50;99.90
16871;DHT22;8552;48.120;-1.456;2023-05-10T10:39:00;16.40;99.90
16871;DHT22;8552;48.120;-1.456;2023-05-10T10:46:59;16.60;99.90
16871;DHT22;8552;48.120;-1.456;2023-05-10T10:49:26;16.40;99.90
16871;DHT22;8552;48.120;-1.456;2023-05-10T10:54:41;16.70;99.90
16871;DHT22;8552;48.120;-1.456;2023-05-10T10:57:11;17.20;99.90
16871;DHT22;8552;48.120;-1.456;2023-05-10T10:59:42;17.20;99.90
16871;DHT22;8552;48.120;-1.456;2023-05-10T11:02:09;17.70;99.90
16871;DHT22;8552;48.120;-1.456;2023-05-10T11:04:42;18.00;99.90
16871;DHT22;8552;48.120;-1.456;2023-05-10T11:07:16;18.00;99.90
16871;DHT22;8552;48.120;-1.456;2023-05-10T11:09:43;17.70;99.90
16871;DHT22;8552;48.120;-1.456;2023-05-10T11:12:09;17.30;99.90
16871;DHT22;8552;48.120;-1.456;2023-05-10T11:14:34;16.70;99.90
16871;DHT22;8552;48.120;-1.456;2023-05-10T11:17:01;16.50;99.90
16871;DHT22;8552;48.120;-1.456;2023-05-10T11:19:27;16.30;99.90
16871;DHT22;8552;48.120;-1.456;2023-05-10T11:22:13;15.90;99.90
16871;DHT22;8552;48.120;-1.456;2023-05-10T11:24:39;15.70;99.90
16871;DHT22;8552;48.120;-1.456;2023-05-10T11:27:08;15.50;99.90
16871;DHT22;8552;48.120;-1.456;2023-05-10T11:29:33;15.40;99.90
16871;DHT22;8552;48.120;-1.456;2023-05-10T11:31:59;15.40;99.90
16871;DHT22;8552;48.120;-1.456;2023-05-10T11:34:27;15.40;99.90
16871;DHT22;8552;48.120;-1.456;2023-05-10T11:36:54;15.40;99.90
16871;DHT22;8552;48.120;-1.456;2023-05-10T11:39:21;15.40;99.90
16871;DHT22;8552;48.120;-1.456;2023-05-10T11:41:54;15.50;99.90
16871;DHT22;8552;48.120;-1.456;2023-05-10T11:44:30;15.60;99.90
16871;DHT22;8552;48.120;-1.456;2023-05-10T11:47:01;16.00;99.90
16871;DHT22;8552;48.120;-1.456;2023-05-10T11:49:32;16.10;99.90
16871;DHT22;8552;48.120;-1.456;2023-05-10T11:52:08;16.30;99.90
16871;DHT22;8552;48.120;-1.456;2023-05-10T11:54:51;16.40;99.90
16871;DHT22;8552;48.120;-1.456;2023-05-10T11:57:26;16.80;99.90
16871;DHT22;8552;48.120;-1.456;2023-05-10T12:00:02;17.30;99.90
16871;DHT22;8552;48.120;-1.456;2023-05-10T12:02:36;17.10;99.90
16871;DHT22;8552;48.120;-1.456;2023-05-10T12:05:07;17.10;99.90
16871;DHT22;8552;48.120;-1.456;2023-05-10T12:07:38;17.10;99.90
16871;DHT22;8552;48.120;-1.456;2023-05-10T12:10:15;16.90;99.90
16871;DHT22;8552;48.120;-1.456;2023-05-10T12:12:46;16.80;99.90
16871;DHT22;8552;48.120;-1.456;2023-05-10T12:15:22;16.50;99.90
16871;DHT22;8552;48.120;-1.456;2023-05-10T12:17:49;16.50;99.90
16871;DHT22;8552;48.120;-1.456;2023-05-10T12:20:19;16.30;99.90
16871;DHT22;8552;48.120;-1.456;2023-05-10T12:22:56;16.30;99.90
16871;DHT22;8552;48.120;-1.456;2023-05-10T12:25:23;16.60;99.90
16871;DHT22;8552;48.120;-1.456;2023-05-10T12:27:54;17.00;99.90
16871;DHT22;8552;48.120;-1.456;2023-05-10T12:30:24;17.40;99.90
16871;DHT22;8552;48.120;-1.456;2023-05-10T12:32:50;17.80;99.90
16871;DHT22;8552;48.120;-1.456;2023-05-10T12:35:16;17.80;99.90
16871;DHT22;8552;48.120;-1.456;2023-05-10T12:37:43;17.90;99.90
16871;DHT22;8552;48.120;-1.456;2023-05-10T12:40:10;18.00;99.90
16871;DHT22;8552;48.120;-1.456;2023-05-10T12:42:39;18.30;99.90
16871;DHT22;8552;48.120;-1.456;2023-05-10T12:45:06;18.20;99.90
16871;DHT22;8552;48.120;-1.456;2023-05-10T12:47:32;18.20;99.90
16871;DHT22;8552;48.120;-1.456;2023-05-10T12:50:01;18.20;99.90
16871;DHT22;8552;48.120;-1.456;2023-05-10T12:52:27;17.70;99.90
16871;DHT22;8552;48.120;-1.456;2023-05-10T12:54:53;17.40;99.90
16871;DHT22;8552;48.120;-1.456;2023-05-10T12:57:20;17.50;99.90
16871;DHT22;8552;48.120;-1.456;2023-05-10T12:59:46;17.50;99.90
16871;DHT22;8552;48.120;-1.456;2023-05-10T13:02:11;17.40;99.90
16871;DHT22;8552;48.120;-1.456;2023-05-10T13:04:37;17.30;99.90
16871;DHT22;8552;48.120;-1.456;2023-05-10T13:07:06;17.20;99.90
16871;DHT22;8552;48.120;-1.456;2023-05-10T13:09:32;17.40;99.90
16871;DHT22;8552;48.120;-1.456;2023-05-10T13:11:57;17.60;99.90
16871;DHT22;8552;48.120;-1.456;2023-05-10T13:14:24;17.60;99.90
16871;DHT22;8552;48.120;-1.456;2023-05-10T13:16:50;17.80;99.90
16871;DHT22;8552;48.120;-1.456;2023-05-10T13:19:16;17.80;99.90
16871;DHT22;8552;48.120;-1.456;2023-05-10T13:21:45;17.60;99.90
16871;DHT22;8552;48.120;-1.456;2023-05-10T13:24:13;17.40;99.90
16871;DHT22;8552;48.120;-1.456;2023-05-10T13:26:40;17.30;99.90
16871;DHT22;8552;48.120;-1.456;2023-05-10T13:29:06;17.30;99.90
16871;DHT22;8552;48.120;-1.456;2023-05-10T13:31:33;17.20;99.90
16871;DHT22;8552;48.120;-1.456;2023-05-10T13:33:59;16.90;99.90
16871;DHT22;8552;48.120;-1.456;2023-05-10T13:36:24;16.80;99.90
16871;DHT22;8552;48.120;-1.456;2023-05-10T13:38:50;16.80;99.90
16871;DHT22;8552;48.120;-1.456;2023-05-10T13:41:16;16.80;99.90
16871;DHT22;8552;48.120;-1.456;2023-05-10T13:43:41;16.70;99.90
16871;DHT22;8552;48.120;-1.456;2023-05-10T13:46:07;16.70;99.90
16871;DHT22;8552;48.120;-1.456;2023-05-10T13:48:32;16.70;99.90
16871;DHT22;8552;48.120;-1.456;2023-05-10T13:50:58;16.70;99.90
16871;DHT22;8552;48.120;-1.456;2023-05-10T13:53:24;16.70;99.90
16871;DHT22;8552;48.120;-1.456;2023-05-10T13:55:49;16.60;99.90
16871;DHT22;8552;48.120;-1.456;2023-05-10T13:58:15;16.70;99.90
16871;DHT22;8552;48.120;-1.456;2023-05-10T14:00:41;16.50;99.90
16871;DHT22;8552;48.120;-1.456;2023-05-10T14:03:07;16.40;99.90
16871;DHT22;8552;48.120;-1.456;2023-05-10T14:05:34;16.20;99.90
16871;DHT22;8552;48.120;-1.456;2023-05-10T14:08:00;15.60;99.90
16871;DHT22;8552;48.120;-1.456;2023-05-10T14:10:25;15.30;99.90
16871;DHT22;8552;48.120;-1.456;2023-05-10T14:12:51;15.20;99.90
16871;DHT22;8552;48.120;-1.456;2023-05-10T14:15:17;14.90;99.90
16871;DHT22;8552;48.120;-1.456;2023-05-10T14:17:42;14.70;99.90
16871;DHT22;8552;48.120;-1.456;2023-05-10T14:20:08;14.50;99.90
16871;DHT22;8552;48.120;-1.456;2023-05-10T14:22:34;14.50;99.90
16871;DHT22;8552;48.120;-1.456;2023-05-10T14:25:00;14.50;99.90
16871;DHT22;8552;48.120;-1.456;2023-05-10T14:27:26;14.40;99.90
16871;DHT22;8552;48.120;-1.456;2023-05-10T14:29:52;14.40;99.90
16871;DHT22;8552;48.120;-1.456;2023-05-10T14:32:18;14.40;99.90
16871;DHT22;8552;48.120;-1.456;2023-05-10T14:34:44;14.40;99.90
16871;DHT22;8552;48.120;-1.456;2023-05-10T14:37:11;14.40;99.90
16871;DHT22;8552;48.120;-1.456;2023-05-10T14:39:37;14.40;99.90
16871;DHT22;8552;48.120;-1.456;2023-05-10T14:42:03;14.50;99.90
16871;DHT22;8552;48.120;-1.456;2023-05-10T14:44:29;14.70;99.90
16871;DHT22;8552;48.120;-1.456;2023-05-10T14:46:54;14.80;99.90
16871;DHT22;8552;48.120;-1.456;2023-05-10T14:49:21;14.90;99.90
16871;DHT22;8552;48.120;-1.456;2023-05-10T14:51:48;14.90;99.90
16871;DHT22;8552;48.120;-1.456;2023-05-10T14:54:13;15.10;99.90
16871;DHT22;8552;48.120;-1.456;2023-05-10T14:56:39;15.10;99.90
16871;DHT22;8552;48.120;-1.456;2023-05-10T14:59:07;15.20;99.90
16871;DHT22;8552;48.120;-1.456;2023-05-10T15:01:32;15.40;99.90
16871;DHT22;8552;48.120;-1.456;2023-05-10T15:04:00;15.50;99.90
16871;DHT22;8552;48.120;-1.456;2023-05-10T15:06:35;15.60;99.90
16871;DHT22;8552;48.120;-1.456;2023-05-10T15:09:01;15.70;99.90
16871;DHT22;8552;48.120;-1.456;2023-05-10T15:11:28;15.90;99.90
16871;DHT22;8552;48.120;-1.456;2023-05-10T15:13:54;16.00;99.90
16871;DHT22;8552;48.120;-1.456;2023-05-10T15:16:20;16.00;99.90
16871;DHT22;8552;48.120;-1.456;2023-05-10T15:18:46;16.00;99.90
16871;DHT22;8552;48.120;-1.456;2023-05-10T15:21:12;16.00;99.90
16871;DHT22;8552;48.120;-1.456;2023-05-10T15:23:38;16.00;99.90
16871;DHT22;8552;48.120;-1.456;2023-05-10T15:26:03;16.10;99.90
16871;DHT22;8552;48.120;-1.456;2023-05-10T15:28:30;16.00;99.90
16871;DHT22;8552;48.120;-1.456;2023-05-10T15:30:55;16.00;99.90
16871;DHT22;8552;48.120;-1.456;2023-05-10T15:33:21;16.00;99.90
16871;DHT22;8552;48.120;-1.456;2023-05-10T15:35:48;16.00;99.90
16871;DHT22;8552;48.120;-1.456;2023-05-10T15:38:13;16.00;99.90
16871;DHT22;8552;48.120;-1.456;2023-05-10T15:40:39;16.30;99.90
16871;DHT22;8552;48.120;-1.456;2023-05-10T15:43:05;16.40;99.90
16871;DHT22;8552;48.120;-1.456;2023-05-10T15:45:31;16.50;99.90
16871;DHT22;8552;48.120;-1.456;2023-05-10T15:47:57;16.60;99.90
16871;DHT22;8552;48.120;-1.456;2023-05-10T15:50:24;16.90;99.90
16871;DHT22;8552;48.120;-1.456;2023-05-10T15:52:49;17.10;99.90
16871;DHT22;8552;48.120;-1.456;2023-05-10T15:55:15;17.20;99.90
16871;DHT22;8552;48.120;-1.456;2023-05-10T15:57:42;17.00;99.90
16871;DHT22;8552;48.120;-1.456;2023-05-10T16:00:09;16.80;99.90
16871;DHT22;8552;48.120;-1.456;2023-05-10T16:02:35;16.70;99.90
16871;DHT22;8552;48.120;-1.456;2023-05-10T16:05:02;16.60;99.90
16871;DHT22;8552;48.120;-1.456;2023-05-10T16:07:28;16.60;99.90